createdAt,value
2018-08-28T00:00:06.173Z,19.20
2018-08-28T00:02:35.496Z,19.00
2018-08-28T00:05:04.853Z,19.10
2018-08-28T00:07:34.224Z,19.20
2018-08-28T00:10:03.569Z,19.20
2018-08-28T00:12:32.952Z,19.20
2018-08-28T00:15:03.394Z,19.20
2018-08-28T00:17:32.676Z,19.30
2018-08-28T00:20:01.883Z,19.10
2018-08-28T00:22:31.304Z,19.20
2018-08-28T00:25:00.710Z,19.20
2018-08-28T00:27:30.092Z,19.30
2018-08-28T00:29:59.340Z,19.20
2018-08-28T00:32:28.614Z,19.10
2018-08-28T00:34:58.075Z,19.20
2018-08-28T00:37:27.336Z,19.10
2018-08-28T00:39:56.607Z,19.00
2018-08-28T00:42:25.952Z,18.90
2018-08-28T00:44:55.209Z,19.10
2018-08-28T00:47:24.535Z,19.10
2018-08-28T00:49:55.014Z,19.00
2018-08-28T00:52:24.304Z,19.10
2018-08-28T00:54:53.719Z,19.10
2018-08-28T00:57:23.043Z,19.10
2018-08-28T00:59:52.513Z,19.00
2018-08-28T01:02:21.788Z,19.20
2018-08-28T01:04:51.019Z,19.10
2018-08-28T01:07:20.287Z,19.10
2018-08-28T01:09:49.584Z,19.20
2018-08-28T01:12:19.014Z,19.10
2018-08-28T01:14:48.398Z,19.10
2018-08-28T01:17:17.765Z,19.20
2018-08-28T01:19:47.089Z,19.20
2018-08-28T01:22:16.421Z,19.20
2018-08-28T01:24:45.733Z,19.10
2018-08-28T01:27:15.104Z,19.00
2018-08-28T01:29:44.521Z,19.00
2018-08-28T01:32:14.963Z,18.90
2018-08-28T01:34:44.239Z,18.90
2018-08-28T01:37:13.544Z,19.10
2018-08-28T01:39:42.861Z,19.00
2018-08-28T01:42:12.263Z,18.90
2018-08-28T01:44:41.570Z,19.00
2018-08-28T01:47:10.903Z,19.10
2018-08-28T01:49:40.169Z,19.10
2018-08-28T01:52:09.418Z,19.10
2018-08-28T01:54:38.627Z,19.10
2018-08-28T01:57:08.043Z,19.10
2018-08-28T01:59:37.333Z,19.10
2018-08-28T02:02:06.626Z,19.00
2018-08-28T02:04:35.914Z,19.10
2018-08-28T02:07:05.477Z,18.90
2018-08-28T02:09:34.792Z,19.00
2018-08-28T02:12:04.127Z,19.10
2018-08-28T02:14:33.528Z,19.00
2018-08-28T02:17:03.019Z,19.00
2018-08-28T02:19:32.461Z,19.10
2018-08-28T02:22:01.839Z,19.10
2018-08-28T02:24:31.301Z,19.10
2018-08-28T02:27:00.532Z,19.10
2018-08-28T02:29:29.800Z,19.00
2018-08-28T02:31:59.101Z,19.10
2018-08-28T02:34:28.566Z,18.90
2018-08-28T02:36:57.857Z,18.90
2018-08-28T02:39:27.166Z,18.70
2018-08-28T02:41:56.546Z,18.80
2018-08-28T02:44:26.631Z,18.90
2018-08-28T02:46:55.890Z,19.00
2018-08-28T02:49:25.170Z,18.90
2018-08-28T02:51:54.571Z,19.00
2018-08-28T02:54:23.856Z,19.00
2018-08-28T02:56:53.071Z,18.90
2018-08-28T02:59:22.366Z,18.90
2018-08-28T03:01:51.769Z,18.90
2018-08-28T03:04:21.009Z,19.00
2018-08-28T03:06:50.283Z,19.00
2018-08-28T03:09:20.669Z,19.00
2018-08-28T03:11:49.971Z,19.00
2018-08-28T03:14:19.282Z,19.00
2018-08-28T03:16:48.608Z,19.00
2018-08-28T03:19:17.889Z,19.00
2018-08-28T03:21:47.207Z,18.90
2018-08-28T03:24:22.532Z,19.00
2018-08-28T03:26:51.773Z,19.00
2018-08-28T03:29:21.140Z,19.00
2018-08-28T03:31:50.576Z,18.90
2018-08-28T03:34:19.831Z,18.90
2018-08-28T03:36:49.143Z,18.90
2018-08-28T03:39:18.403Z,18.90
2018-08-28T03:41:47.631Z,18.90
2018-08-28T03:44:18.108Z,18.90
2018-08-28T03:46:47.385Z,18.90
2018-08-28T03:49:16.683Z,18.90
2018-08-28T03:51:45.963Z,18.90
2018-08-28T03:54:15.267Z,18.90
2018-08-28T03:56:44.564Z,19.00
2018-08-28T03:59:13.879Z,19.00
2018-08-28T04:01:46.366Z,19.00
2018-08-28T04:04:15.643Z,18.90
2018-08-28T04:06:44.899Z,18.90
2018-08-28T04:09:14.263Z,19.00
2018-08-28T04:11:43.574Z,19.00
2018-08-28T04:14:12.907Z,18.90
2018-08-28T04:16:42.202Z,18.80
2018-08-28T04:19:11.577Z,18.90
2018-08-28T04:21:40.867Z,18.70
2018-08-28T04:24:10.190Z,18.80
2018-08-28T04:26:39.470Z,18.90
2018-08-28T04:29:09.159Z,18.90
2018-08-28T04:31:38.432Z,18.80
2018-08-28T04:34:07.811Z,18.90
2018-08-28T04:36:37.136Z,18.90
2018-08-28T04:39:08.063Z,19.00
2018-08-28T04:41:43.883Z,18.90
2018-08-28T04:44:13.186Z,19.00
2018-08-28T04:46:42.443Z,18.90
2018-08-28T04:49:11.730Z,18.90
2018-08-28T04:51:40.992Z,18.90
2018-08-28T04:54:10.359Z,18.90
2018-08-28T04:56:39.656Z,18.80
2018-08-28T04:59:09.049Z,18.80
2018-08-28T05:01:38.390Z,18.90
2018-08-28T05:04:07.748Z,19.00
2018-08-28T05:06:37.099Z,19.00
2018-08-28T05:09:07.908Z,19.10
2018-08-28T05:11:37.328Z,19.10
2018-08-28T05:14:06.711Z,19.20
2018-08-28T05:16:36.008Z,19.20
2018-08-28T05:19:05.426Z,19.30
2018-08-28T05:21:34.835Z,19.30
2018-08-28T05:24:04.195Z,19.40
2018-08-28T05:26:33.479Z,19.30
2018-08-28T05:29:02.800Z,19.40
2018-08-28T05:31:32.168Z,19.40
2018-08-28T05:34:01.480Z,19.50
2018-08-28T05:36:30.927Z,19.50
2018-08-28T05:39:00.289Z,19.60
2018-08-28T05:41:29.608Z,19.60
2018-08-28T05:43:58.985Z,19.60
2018-08-28T05:46:28.285Z,19.60
2018-08-28T05:48:57.659Z,19.60
2018-08-28T05:51:27.143Z,19.60
2018-08-28T05:53:56.852Z,19.60
2018-08-28T05:56:26.212Z,19.60
2018-08-28T05:59:02.208Z,19.60
2018-08-28T06:01:31.558Z,19.70
2018-08-28T06:04:00.756Z,19.70
2018-08-28T06:06:30.057Z,19.70
2018-08-28T06:08:59.646Z,19.70
2018-08-28T06:11:30.046Z,19.60
2018-08-28T06:13:59.344Z,19.70
2018-08-28T06:16:28.672Z,19.80
2018-08-28T06:18:57.986Z,19.50
2018-08-28T06:21:27.302Z,19.50
2018-08-28T06:23:56.639Z,19.70
2018-08-28T06:26:25.926Z,19.80
2018-08-28T06:28:55.180Z,19.80
2018-08-28T06:31:24.406Z,19.90
2018-08-28T06:33:53.810Z,19.90
2018-08-28T06:36:23.145Z,20.10
2018-08-28T06:38:52.458Z,19.90
2018-08-28T06:41:21.750Z,19.90
2018-08-28T06:43:51.178Z,19.80
2018-08-28T06:46:20.503Z,19.80
2018-08-28T06:48:49.988Z,19.70
2018-08-28T06:51:24.261Z,19.60
2018-08-28T06:53:53.526Z,19.70
2018-08-28T06:56:22.791Z,19.70
2018-08-28T06:58:54.199Z,20.10
2018-08-28T07:01:23.436Z,20.10
2018-08-28T07:03:53.166Z,20.00
2018-08-28T07:06:22.507Z,19.90
2018-08-28T07:08:51.830Z,20.00
2018-08-28T07:11:21.117Z,20.00
2018-08-28T07:13:50.453Z,20.10
2018-08-28T07:16:19.834Z,20.40
2018-08-28T07:18:49.163Z,20.40
2018-08-28T07:21:18.423Z,20.50
2018-08-28T07:23:47.752Z,20.30
2018-08-28T07:26:17.028Z,20.30
2018-08-28T07:28:48.391Z,20.60
2018-08-28T07:31:17.788Z,20.70
2018-08-28T07:33:47.121Z,20.80
2018-08-28T07:36:16.364Z,21.00
2018-08-28T07:38:46.703Z,21.00
2018-08-28T07:41:16.000Z,21.00
2018-08-28T07:43:45.346Z,21.20
2018-08-28T07:46:15.126Z,21.30
2018-08-28T07:48:44.440Z,21.20
2018-08-28T07:51:19.751Z,21.00
2018-08-28T07:53:49.070Z,21.00
2018-08-28T07:56:18.310Z,20.60
2018-08-28T07:58:47.966Z,20.60
2018-08-28T08:01:17.305Z,20.90
2018-08-28T08:03:46.588Z,21.30
2018-08-28T08:06:15.887Z,21.50
2018-08-28T08:08:45.283Z,21.60
2018-08-28T08:11:16.616Z,21.40
2018-08-28T08:13:45.929Z,21.60
2018-08-28T08:16:15.274Z,21.80
2018-08-28T08:18:44.792Z,21.60
2018-08-28T08:21:14.289Z,21.90
2018-08-28T08:23:46.066Z,21.80
2018-08-28T08:26:15.387Z,22.10
2018-08-28T08:28:44.676Z,22.20
2018-08-28T08:31:13.932Z,22.30
2018-08-28T08:33:43.240Z,22.10
2018-08-28T08:36:12.562Z,22.40
2018-08-28T08:38:41.827Z,22.60
2018-08-28T08:41:11.156Z,22.80
2018-08-28T08:43:40.416Z,22.80
2018-08-28T08:46:09.757Z,23.30
2018-08-28T08:48:39.011Z,23.30
2018-08-28T08:51:08.314Z,23.30
2018-08-28T08:53:37.610Z,23.40
2018-08-28T08:56:06.915Z,23.70
2018-08-28T08:58:36.237Z,23.90
2018-08-28T09:01:06.736Z,23.50
2018-08-28T09:03:35.979Z,23.60
2018-08-28T09:06:05.364Z,23.30
2018-08-28T09:08:34.683Z,23.30
2018-08-28T09:11:04.077Z,23.70
2018-08-28T09:13:33.505Z,23.50
2018-08-28T09:16:02.855Z,23.30
2018-08-28T09:18:32.269Z,23.00
2018-08-28T09:21:01.496Z,23.00
2018-08-28T09:23:30.750Z,23.90
2018-08-28T09:26:00.024Z,24.30
2018-08-28T09:28:29.547Z,23.80
2018-08-28T09:30:58.847Z,23.40
2018-08-28T09:33:28.130Z,23.40
2018-08-28T09:35:57.352Z,23.80
2018-08-28T09:38:26.732Z,24.00
2018-08-28T09:40:55.929Z,24.30
2018-08-28T09:43:25.166Z,24.70
2018-08-28T09:45:54.440Z,24.60
2018-08-28T09:48:23.945Z,24.40
2018-08-28T09:50:53.521Z,24.50
2018-08-28T09:53:22.925Z,24.80
2018-08-28T09:55:52.327Z,24.30
2018-08-28T09:58:21.773Z,24.30
2018-08-28T10:01:56.935Z,24.60
2018-08-28T10:04:26.247Z,24.70
2018-08-28T10:06:55.675Z,24.50
2018-08-28T10:09:25.270Z,24.70
2018-08-28T10:11:54.687Z,24.80
2018-08-28T10:14:24.001Z,24.70
2018-08-28T10:16:53.396Z,24.70
2018-08-28T10:19:22.976Z,24.90
2018-08-28T10:21:52.247Z,24.80
2018-08-28T10:24:21.919Z,24.70
2018-08-28T10:26:51.171Z,24.60
2018-08-28T10:29:20.519Z,24.40
2018-08-28T10:31:49.805Z,24.40
2018-08-28T10:34:19.174Z,24.50
2018-08-28T10:36:48.412Z,24.60
2018-08-28T10:39:17.627Z,24.60
2018-08-28T10:41:46.915Z,24.10
2018-08-28T10:44:16.111Z,24.50
2018-08-28T10:46:45.502Z,24.70
2018-08-28T10:49:14.779Z,25.00
2018-08-28T10:51:44.077Z,24.80
2018-08-28T10:54:13.651Z,25.00
2018-08-28T10:56:42.941Z,25.20
2018-08-28T10:59:12.328Z,25.60
2018-08-28T11:01:41.610Z,25.10
2018-08-28T11:04:10.854Z,25.20
2018-08-28T11:06:40.191Z,25.40
2018-08-28T11:09:09.705Z,25.60
2018-08-28T11:11:39.131Z,25.50
2018-08-28T11:14:08.976Z,25.90
2018-08-28T11:16:38.435Z,26.00
2018-08-28T11:19:07.827Z,26.00
2018-08-28T11:21:37.223Z,25.90
2018-08-28T11:24:06.592Z,26.00
2018-08-28T11:26:36.132Z,25.80
2018-08-28T11:29:05.889Z,25.60
2018-08-28T11:31:35.160Z,25.70
2018-08-28T11:34:04.580Z,25.90
2018-08-28T11:36:33.995Z,26.00
2018-08-28T11:39:03.321Z,26.00
2018-08-28T11:41:32.608Z,25.70
2018-08-28T11:44:02.019Z,26.00
2018-08-28T11:46:31.356Z,25.40
2018-08-28T11:49:00.582Z,25.80
2018-08-28T11:51:29.989Z,25.70
2018-08-28T11:54:00.876Z,26.00
2018-08-28T11:56:30.167Z,26.00
2018-08-28T11:58:59.466Z,26.50
2018-08-28T12:01:29.800Z,26.80
2018-08-28T12:03:59.063Z,27.00
2018-08-28T12:06:28.442Z,26.70
2018-08-28T12:08:57.937Z,26.60
2018-08-28T12:11:27.284Z,26.40
2018-08-28T12:14:04.196Z,26.20
2018-08-28T12:16:33.579Z,26.10
2018-08-28T12:19:03.028Z,26.00
2018-08-28T12:21:32.324Z,26.30
2018-08-28T12:24:01.627Z,26.30
2018-08-28T12:26:30.994Z,26.10
2018-08-28T12:29:00.267Z,25.80
2018-08-28T12:31:29.655Z,25.50
2018-08-28T12:33:59.108Z,26.00
2018-08-28T12:36:28.467Z,26.30
2018-08-28T12:38:57.755Z,26.20
2018-08-28T12:41:27.198Z,26.10
2018-08-28T12:43:56.623Z,26.20
2018-08-28T12:46:25.877Z,26.40
2018-08-28T12:48:55.151Z,26.60
2018-08-28T12:51:24.561Z,26.60
2018-08-28T12:53:53.769Z,26.30
2018-08-28T12:56:23.138Z,25.90
2018-08-28T12:58:52.512Z,25.90
2018-08-28T13:01:21.847Z,25.90
2018-08-28T13:03:51.201Z,26.10
2018-08-28T13:06:20.510Z,26.40
2018-08-28T13:08:49.812Z,26.30
2018-08-28T13:11:19.145Z,24.70
2018-08-28T13:13:49.314Z,24.50
2018-08-28T13:16:18.700Z,25.20
2018-08-28T13:18:48.086Z,25.40
2018-08-28T13:21:17.399Z,25.40
2018-08-28T13:23:47.079Z,25.10
2018-08-28T13:26:16.511Z,25.10
2018-08-28T13:28:45.813Z,24.90
2018-08-28T13:31:15.175Z,25.10
2018-08-28T13:33:44.560Z,25.20
2018-08-28T13:36:13.851Z,25.50
2018-08-28T13:38:43.104Z,25.50
2018-08-28T13:41:12.534Z,25.60
2018-08-28T13:43:41.858Z,25.60
2018-08-28T13:46:11.156Z,25.80
2018-08-28T13:48:40.431Z,26.00
2018-08-28T13:51:09.727Z,26.10
2018-08-28T13:53:39.099Z,26.10
2018-08-28T13:56:08.341Z,26.30
2018-08-28T13:58:39.571Z,25.70
2018-08-28T14:01:08.879Z,25.80
2018-08-28T14:03:38.117Z,26.00
2018-08-28T14:06:07.419Z,26.30
2018-08-28T14:08:36.686Z,26.20
2018-08-28T14:11:05.681Z,26.40
2018-08-28T14:13:35.010Z,26.50
2018-08-28T14:16:04.236Z,26.50
2018-08-28T14:18:33.536Z,26.40
2018-08-28T14:21:02.799Z,26.30
2018-08-28T14:23:32.282Z,26.00
2018-08-28T14:26:01.656Z,26.20
2018-08-28T14:28:30.994Z,26.40
2018-08-28T14:31:00.299Z,26.70
2018-08-28T14:33:37.462Z,26.30
2018-08-28T14:36:06.799Z,26.40
2018-08-28T14:38:36.128Z,26.50
2018-08-28T14:41:06.518Z,26.40
2018-08-28T14:43:35.789Z,26.50
2018-08-28T14:46:06.470Z,26.20
2018-08-28T14:48:35.839Z,26.20
2018-08-28T14:51:05.500Z,26.60
2018-08-28T14:53:37.026Z,26.70
2018-08-28T14:56:06.476Z,26.80
2018-08-28T14:58:35.832Z,26.70
2018-08-28T15:01:05.162Z,26.20
2018-08-28T15:03:34.436Z,26.40
2018-08-28T15:06:03.764Z,26.30
2018-08-28T15:08:33.002Z,26.40
2018-08-28T15:11:02.301Z,26.00
2018-08-28T15:13:31.571Z,26.00
2018-08-28T15:16:00.882Z,26.20
2018-08-28T15:18:30.185Z,26.40
2018-08-28T15:20:59.551Z,26.40
2018-08-28T15:23:28.840Z,26.20
2018-08-28T15:25:59.250Z,25.90
2018-08-28T15:28:28.549Z,26.10
2018-08-28T15:30:57.844Z,26.10
2018-08-28T15:33:27.236Z,25.80
2018-08-28T15:35:56.516Z,25.50
2018-08-28T15:38:26.009Z,25.30
2018-08-28T15:40:55.400Z,25.40
2018-08-28T15:43:24.730Z,25.50
2018-08-28T15:45:54.074Z,25.30
2018-08-28T15:48:24.014Z,25.20
2018-08-28T15:50:53.412Z,24.80
2018-08-28T15:53:23.776Z,25.10
2018-08-28T15:55:53.164Z,25.40
2018-08-28T15:58:26.391Z,24.90
2018-08-28T16:00:55.644Z,24.30
2018-08-28T16:03:25.049Z,24.50
2018-08-28T16:05:55.536Z,24.90
2018-08-28T16:08:24.873Z,24.90
2018-08-28T16:10:54.266Z,24.80
2018-08-28T16:13:23.651Z,24.80
2018-08-28T16:15:53.048Z,25.10
2018-08-28T16:18:22.435Z,25.00
2018-08-28T16:20:51.812Z,24.80
2018-08-28T16:23:26.237Z,24.90
2018-08-28T16:25:55.618Z,23.90
2018-08-28T16:28:24.969Z,24.40
2018-08-28T16:30:54.324Z,24.70
2018-08-28T16:33:23.634Z,24.80
2018-08-28T16:35:53.155Z,24.90
2018-08-28T16:38:22.570Z,24.80
2018-08-28T16:40:51.889Z,24.80
2018-08-28T16:43:21.188Z,25.00
2018-08-28T16:45:50.598Z,25.20
2018-08-28T16:48:19.917Z,25.10
2018-08-28T16:50:49.205Z,25.20
2018-08-28T16:53:18.510Z,25.40
2018-08-28T16:55:47.827Z,25.30
2018-08-28T16:58:17.080Z,25.40
2018-08-28T17:00:47.508Z,25.30
2018-08-28T17:03:17.503Z,25.40
2018-08-28T17:05:46.815Z,25.30
2018-08-28T17:08:16.093Z,25.30
2018-08-28T17:10:46.555Z,25.20
2018-08-28T17:13:15.941Z,25.20
2018-08-28T17:15:45.223Z,25.20
2018-08-28T17:18:15.323Z,25.20
2018-08-28T17:20:44.622Z,25.10
2018-08-28T17:23:15.165Z,25.10
2018-08-28T17:25:44.466Z,24.70
2018-08-28T17:28:13.839Z,24.90
2018-08-28T17:30:43.205Z,24.90
2018-08-28T17:33:12.506Z,25.00
2018-08-28T17:35:42.016Z,25.00
2018-08-28T17:38:11.595Z,25.00
2018-08-28T17:40:40.950Z,25.00
2018-08-28T17:43:10.487Z,24.90
2018-08-28T17:45:39.868Z,24.80
2018-08-28T17:48:13.188Z,24.90
2018-08-28T17:50:42.542Z,24.70
2018-08-28T17:53:11.900Z,24.80
2018-08-28T17:55:41.215Z,24.60
2018-08-28T17:58:10.555Z,24.60
2018-08-28T18:00:39.990Z,24.60
2018-08-28T18:03:09.355Z,24.60
2018-08-28T18:05:40.988Z,24.50
2018-08-28T18:08:10.585Z,24.50
2018-08-28T18:10:40.104Z,24.30
2018-08-28T18:13:09.835Z,24.30
2018-08-28T18:15:39.290Z,24.20
2018-08-28T18:18:08.571Z,24.10
2018-08-28T18:20:38.949Z,24.00
2018-08-28T18:23:08.367Z,24.00
2018-08-28T18:25:46.443Z,23.90
2018-08-28T18:28:17.876Z,23.70
2018-08-28T18:30:47.599Z,23.70
2018-08-28T18:33:16.984Z,23.80
2018-08-28T18:35:47.006Z,23.70
2018-08-28T18:38:16.665Z,23.70
2018-08-28T18:40:46.053Z,23.70
2018-08-28T18:43:17.464Z,23.60
2018-08-28T18:45:46.875Z,23.60
2018-08-28T18:48:17.367Z,23.50
2018-08-28T18:50:48.796Z,23.50
2018-08-28T18:53:18.177Z,23.50
2018-08-28T18:55:47.609Z,23.50
2018-08-28T18:58:17.020Z,23.50
2018-08-28T19:00:46.379Z,23.40
2018-08-28T19:03:16.972Z,23.40
2018-08-28T19:05:46.450Z,23.40
2018-08-28T19:08:16.141Z,23.40
2018-08-28T19:10:45.997Z,23.30
2018-08-28T19:13:22.054Z,23.30
2018-08-28T19:15:51.825Z,23.30
2018-08-28T19:18:38.585Z,23.20
2018-08-28T19:21:07.917Z,23.20
2018-08-28T19:23:37.662Z,23.10
2018-08-28T19:26:07.519Z,23.10
2018-08-28T19:28:37.385Z,23.10
2018-08-28T19:31:08.721Z,23.00
2018-08-28T19:33:38.159Z,23.00
2018-08-28T19:36:07.940Z,22.80
2018-08-28T19:38:37.269Z,22.80
2018-08-28T19:41:14.016Z,22.80
2018-08-28T19:43:44.388Z,22.80
2018-08-28T19:46:13.632Z,22.80
2018-08-28T19:48:43.053Z,22.80
2018-08-28T19:51:12.425Z,22.80
2018-08-28T19:53:41.805Z,22.70
2018-08-28T19:56:11.136Z,22.70
2018-08-28T19:58:42.415Z,22.70
2018-08-28T20:01:11.748Z,22.70
2018-08-28T20:03:42.254Z,22.70
2018-08-28T20:06:20.178Z,22.60
2018-08-28T20:08:49.522Z,22.50
2018-08-28T20:11:18.918Z,22.50
2018-08-28T20:13:48.337Z,22.40
2018-08-28T20:16:17.903Z,22.30
2018-08-28T20:18:47.240Z,22.30
2018-08-28T20:21:16.855Z,22.30
2018-08-28T20:23:46.698Z,22.30
2018-08-28T20:26:16.892Z,22.30
2018-08-28T20:28:46.506Z,22.30
2018-08-28T20:31:20.015Z,22.30
2018-08-28T20:33:49.950Z,22.20
2018-08-28T20:36:19.432Z,22.20
2018-08-28T20:38:48.723Z,22.20
2018-08-28T20:41:18.046Z,22.20
2018-08-28T20:43:47.498Z,22.10
2018-08-28T20:46:17.273Z,21.80
2018-08-28T20:48:46.587Z,21.60
2018-08-28T20:51:16.016Z,21.50
2018-08-28T20:53:45.367Z,21.30
2018-08-28T20:56:14.740Z,21.20
2018-08-28T20:58:44.455Z,21.20
2018-08-28T21:01:13.956Z,21.10
2018-08-28T21:03:43.517Z,21.00
2018-08-28T21:06:13.165Z,21.10
2018-08-28T21:08:42.513Z,21.00
2018-08-28T21:11:11.918Z,21.00
2018-08-28T21:13:41.276Z,20.90
2018-08-28T21:16:15.543Z,20.90
2018-08-28T21:18:44.999Z,20.50
2018-08-28T21:21:14.311Z,20.70
2018-08-28T21:23:44.716Z,20.80
2018-08-28T21:26:14.118Z,20.80
2018-08-28T21:28:43.475Z,20.80
2018-08-28T21:31:12.827Z,20.80
2018-08-28T21:33:42.496Z,20.60
2018-08-28T21:36:11.799Z,20.40
2018-08-28T21:38:41.143Z,20.50
2018-08-28T21:41:10.497Z,20.50
2018-08-28T21:43:41.862Z,20.60
2018-08-28T21:46:11.540Z,20.50
2018-08-28T21:48:40.862Z,20.50
2018-08-28T21:51:10.191Z,20.30
2018-08-28T21:53:39.489Z,20.40
2018-08-28T21:56:08.917Z,20.40
2018-08-28T21:58:38.320Z,20.30
2018-08-28T22:01:11.137Z,20.30
2018-08-28T22:03:41.710Z,20.30
2018-08-28T22:06:16.267Z,20.20
2018-08-28T22:08:50.591Z,20.10
2018-08-28T22:11:19.891Z,20.20
2018-08-28T22:13:49.245Z,20.20
2018-08-28T22:16:18.612Z,20.10
2018-08-28T22:18:48.078Z,20.00
2018-08-28T22:21:18.063Z,20.00
2018-08-28T22:23:47.352Z,20.00
2018-08-28T22:26:16.744Z,19.90
2018-08-28T22:28:46.073Z,19.90
2018-08-28T22:31:15.321Z,20.00
2018-08-28T22:33:44.674Z,19.90
2018-08-28T22:36:14.105Z,19.90
2018-08-28T22:38:43.419Z,19.90
2018-08-28T22:41:12.706Z,19.90
2018-08-28T22:43:42.008Z,19.90
2018-08-28T22:46:11.309Z,19.70
2018-08-28T22:48:40.653Z,19.80
2018-08-28T22:51:10.000Z,19.80
2018-08-28T22:53:39.230Z,19.70
2018-08-28T22:56:08.542Z,19.60
2018-08-28T22:58:37.865Z,19.70
2018-08-28T23:01:07.163Z,19.60
2018-08-28T23:03:36.520Z,19.60
2018-08-28T23:06:05.860Z,19.70
2018-08-28T23:08:35.239Z,19.80
2018-08-28T23:11:04.539Z,19.80
2018-08-28T23:13:33.923Z,19.70
2018-08-28T23:16:03.603Z,19.70
2018-08-28T23:18:32.919Z,19.80
2018-08-28T23:21:02.283Z,19.80
2018-08-28T23:23:31.616Z,19.70
2018-08-28T23:26:00.883Z,19.60
2018-08-28T23:28:30.187Z,19.60
2018-08-28T23:31:03.532Z,19.60
2018-08-28T23:33:32.905Z,19.70
2018-08-28T23:36:02.268Z,19.70
2018-08-28T23:38:31.521Z,19.70
2018-08-28T23:41:00.767Z,19.70
2018-08-28T23:43:34.960Z,19.70
2018-08-28T23:46:04.255Z,19.70
2018-08-28T23:48:33.527Z,19.60
2018-08-28T23:51:02.867Z,19.50
2018-08-28T23:53:32.158Z,19.40
2018-08-28T23:56:02.491Z,19.20
2018-08-28T23:58:31.755Z,19.30
